createdAt,value
2023-05-04T05:03:25.333Z,506.00
2023-05-04T05:04:25.379Z,508.00
2023-05-04T05:05:25.269Z,508.00
2023-05-04T05:06:26.249Z,509.00
2023-05-04T05:07:25.282Z,507.00
2023-05-04T05:08:25.241Z,506.00
2023-05-04T05:09:25.225Z,506.00
2023-05-04T05:10:25.260Z,504.00
2023-05-04T05:11:25.961Z,502.00
2023-05-04T05:12:25.911Z,501.00
2023-05-04T05:13:26.916Z,499.00
2023-05-04T05:14:26.556Z,499.00
2023-05-04T05:15:27.715Z,499.00
2023-05-04T05:16:27.349Z,495.00
2023-05-04T05:17:27.017Z,493.00
2023-05-04T05:18:29.493Z,492.00
2023-05-04T05:19:26.743Z,493.00
2023-05-04T05:20:26.658Z,492.00
2023-05-04T05:21:27.533Z,491.00
2023-05-04T05:22:27.469Z,493.00
2023-05-04T05:23:26.961Z,491.00
2023-05-04T05:24:27.839Z,496.00
2023-05-04T05:25:26.709Z,498.00
2023-05-04T05:26:25.732Z,498.00
2023-05-04T05:27:26.961Z,498.00
2023-05-04T05:28:26.828Z,496.00
2023-05-04T05:29:28.394Z,495.00
2023-05-04T05:30:25.948Z,496.00
2023-05-04T05:31:27.026Z,492.00
2023-05-04T05:32:27.554Z,491.00
2023-05-04T05:33:26.854Z,491.00
2023-05-04T05:34:26.425Z,492.00
2023-05-04T05:35:27.026Z,498.00
2023-05-04T05:36:27.059Z,490.00
2023-05-04T05:37:26.178Z,488.00
2023-05-04T05:38:26.340Z,492.00
2023-05-04T05:39:25.906Z,489.00
2023-05-04T05:40:25.807Z,489.00
2023-05-04T05:41:25.920Z,490.00
2023-05-04T05:43:45.117Z,498.00
2023-05-04T05:44:45.028Z,499.00
2023-05-04T05:45:44.860Z,502.00
2023-05-04T05:46:45.984Z,502.00
2023-05-04T05:47:46.020Z,500.00
2023-05-04T05:48:45.882Z,499.00
2023-05-04T05:49:46.432Z,503.00
2023-05-04T05:50:44.862Z,503.00
2023-05-04T05:51:45.853Z,501.00
2023-05-04T05:52:44.835Z,501.00
2023-05-04T05:53:45.863Z,503.00
2023-05-04T05:54:44.796Z,502.00
2023-05-04T05:55:45.782Z,504.00
2023-05-04T05:56:44.801Z,504.00
2023-05-04T05:57:44.779Z,504.00
2023-05-04T05:58:45.813Z,501.00
2023-05-04T05:59:44.807Z,501.00
2023-05-04T06:00:45.771Z,502.00
2023-05-04T06:01:45.934Z,500.00
2023-05-04T06:02:44.863Z,498.00
2023-05-04T06:03:44.953Z,496.00
2023-05-04T06:04:44.787Z,499.00
2023-05-04T06:05:45.773Z,500.00
2023-05-04T06:06:46.148Z,500.00
2023-05-04T06:07:46.680Z,501.00
2023-05-04T06:08:46.007Z,501.00
2023-05-04T06:09:44.870Z,499.00
2023-05-04T06:10:44.921Z,504.00
2023-05-04T06:11:45.080Z,504.00
2023-05-04T06:12:44.977Z,503.00
2023-05-04T06:13:46.022Z,499.00
2023-05-04T06:14:45.059Z,497.00
2023-05-04T06:15:45.053Z,497.00
2023-05-04T06:16:46.241Z,499.00
2023-05-04T06:17:46.566Z,499.00
2023-05-04T06:18:46.157Z,499.00
2023-05-04T06:19:47.579Z,503.00
2023-05-04T06:20:46.709Z,503.00
2023-05-04T06:23:04.343Z,490.00
2023-05-04T06:29:21.222Z,502.00
2023-05-04T06:30:21.248Z,505.00
2023-05-04T06:31:21.336Z,502.00
2023-05-04T06:32:22.275Z,502.00
2023-05-04T06:33:22.213Z,498.00
2023-05-04T06:35:41.338Z,497.00
2023-05-04T06:38:01.124Z,500.00
2023-05-04T06:40:35.727Z,502.00
2023-05-04T06:41:35.728Z,500.00
2023-05-04T06:42:36.666Z,504.00
2023-05-04T06:43:37.058Z,502.00
2023-05-04T06:44:35.945Z,501.00
2023-05-04T06:45:39.650Z,501.00
2023-05-04T06:46:48.758Z,496.00
2023-05-04T06:48:55.864Z,475.00
2023-05-04T06:49:57.264Z,488.00
2023-05-04T06:57:31.454Z,483.00
2023-05-04T07:00:56.674Z,488.00
2023-05-04T07:03:34.926Z,502.00
2023-05-04T07:05:49.687Z,535.00
2023-05-04T07:06:50.721Z,526.00
2023-05-04T07:07:51.446Z,489.00
2023-05-04T07:10:10.195Z,483.00
2023-05-04T07:12:47.408Z,505.00
2023-05-04T07:16:28.818Z,471.00
2023-05-04T07:18:45.589Z,491.00
2023-05-04T07:19:46.003Z,492.00
2023-05-04T07:20:47.185Z,488.00
2023-05-04T07:21:46.205Z,479.00
2023-05-04T07:24:05.135Z,480.00
2023-05-04T07:26:27.420Z,472.00
2023-05-04T07:27:24.599Z,470.00
2023-05-04T07:28:25.358Z,475.00
2023-05-04T07:29:29.573Z,470.00
2023-05-04T07:30:24.916Z,474.00
2023-05-04T07:31:31.012Z,472.00
2023-05-04T07:33:46.095Z,480.00
2023-05-04T07:34:48.789Z,486.00
2023-05-04T07:35:46.031Z,498.00
2023-05-04T07:36:44.994Z,480.00
2023-05-04T07:37:45.473Z,477.00
2023-05-04T07:47:51.867Z,470.00
2023-05-04T07:51:11.763Z,467.00
2023-05-04T07:52:02.969Z,461.00
2023-05-04T07:53:03.780Z,465.00
2023-05-04T07:54:02.751Z,461.00
2023-05-04T07:55:02.767Z,463.00
2023-05-04T07:56:01.981Z,465.00
2023-05-04T07:57:02.746Z,476.00
2023-05-04T07:58:01.786Z,466.00
2023-05-04T07:59:02.698Z,467.00
2023-05-04T08:00:03.031Z,467.00
2023-05-04T08:01:02.735Z,464.00
2023-05-04T08:02:01.787Z,462.00
2023-05-04T08:03:02.911Z,462.00
2023-05-04T08:05:20.784Z,464.00
2023-05-04T08:07:41.377Z,464.00
2023-05-04T08:08:41.347Z,465.00
2023-05-04T08:09:40.358Z,467.00
2023-05-04T08:10:41.317Z,465.00
2023-05-04T08:11:41.382Z,465.00
2023-05-04T08:12:41.378Z,464.00
2023-05-04T08:13:41.297Z,463.00
2023-05-04T08:15:59.350Z,451.00
2023-05-04T08:18:22.685Z,458.00
2023-05-04T08:19:19.535Z,452.00
2023-05-04T08:20:18.833Z,457.00
2023-05-04T08:21:18.508Z,458.00
2023-05-04T08:22:19.526Z,455.00
2023-05-04T08:23:19.487Z,454.00
2023-05-04T08:25:38.464Z,468.00
2023-05-04T08:26:47.308Z,458.00
2023-05-04T08:27:39.014Z,467.00
2023-05-04T08:28:38.990Z,463.00
2023-05-04T08:29:38.075Z,460.00
2023-05-04T08:30:39.025Z,462.00
2023-05-04T08:34:16.813Z,452.00
2023-05-04T08:35:17.701Z,448.00
2023-05-04T08:36:17.937Z,452.00
2023-05-04T08:37:16.590Z,452.00
2023-05-04T08:38:16.603Z,453.00
2023-05-04T08:39:17.601Z,454.00
2023-05-04T08:40:17.576Z,450.00
2023-05-04T08:41:16.565Z,448.00
2023-05-04T08:42:17.522Z,452.00
2023-05-04T08:44:36.775Z,447.00
2023-05-04T08:46:57.250Z,455.00
2023-05-04T08:48:06.350Z,454.00
2023-05-04T08:50:39.852Z,455.00
2023-05-04T08:51:52.077Z,456.00
2023-05-04T08:52:39.589Z,459.00
2023-05-04T08:53:39.565Z,449.00
2023-05-04T08:54:39.690Z,451.00
2023-05-04T08:55:39.565Z,454.00
2023-05-04T08:56:39.895Z,457.00
2023-05-04T08:57:39.548Z,455.00
2023-05-04T08:58:38.555Z,455.00
2023-05-04T08:59:39.522Z,452.00
2023-05-04T09:00:39.601Z,452.00
2023-05-04T09:01:39.543Z,452.00
2023-05-04T09:02:38.512Z,450.00
2023-05-04T09:03:39.548Z,450.00
2023-05-04T09:04:39.494Z,450.00
2023-05-04T09:05:38.500Z,445.00
2023-05-04T09:06:39.540Z,447.00
2023-05-04T09:07:39.450Z,452.00
2023-05-04T09:08:38.465Z,451.00
2023-05-04T09:09:38.540Z,452.00
2023-05-04T09:10:39.571Z,446.00
2023-05-04T09:11:38.450Z,447.00
2023-05-04T09:12:39.485Z,445.00
2023-05-04T09:13:39.483Z,444.00
2023-05-04T09:14:40.377Z,447.00
2023-05-04T09:15:39.434Z,451.00
2023-05-04T09:16:42.978Z,450.00
2023-05-04T09:17:50.972Z,452.00
2023-05-04T09:18:39.428Z,452.00
2023-05-04T09:20:57.704Z,436.00
2023-05-04T09:21:58.564Z,440.00
2023-05-04T09:22:58.469Z,441.00
2023-05-04T09:23:58.441Z,445.00
2023-05-04T09:24:58.386Z,442.00
2023-05-04T09:25:58.588Z,443.00
2023-05-04T09:26:57.482Z,449.00
2023-05-04T09:27:58.610Z,451.00
2023-05-04T09:28:57.374Z,450.00
2023-05-04T09:29:58.385Z,450.00
2023-05-04T09:30:57.349Z,448.00
2023-05-04T09:31:58.341Z,448.00
2023-05-04T09:32:57.464Z,448.00
2023-05-04T09:33:58.320Z,449.00
2023-05-04T09:34:57.389Z,452.00
2023-05-04T09:35:58.366Z,453.00
2023-05-04T09:36:58.323Z,453.00
2023-05-04T09:37:58.355Z,449.00
2023-05-04T09:38:58.281Z,445.00
2023-05-04T09:39:57.334Z,446.00
2023-05-04T09:40:57.355Z,449.00
2023-05-04T09:41:58.375Z,448.00
2023-05-04T09:42:57.357Z,445.00
2023-05-04T09:43:58.373Z,445.00
2023-05-04T09:44:58.407Z,449.00
2023-05-04T09:45:57.555Z,453.00
2023-05-04T09:46:58.526Z,450.00
2023-05-04T09:47:58.569Z,474.00
2023-05-04T09:48:58.508Z,451.00
2023-05-04T09:49:58.547Z,449.00
2023-05-04T09:50:58.542Z,446.00
2023-05-04T09:51:59.024Z,448.00
2023-05-04T09:52:58.583Z,450.00
2023-05-04T09:53:57.758Z,445.00
2023-05-04T09:54:57.698Z,446.00
2023-05-04T09:55:58.638Z,444.00
2023-05-04T09:56:58.796Z,442.00
2023-05-04T09:57:58.824Z,442.00
2023-05-04T09:58:57.876Z,440.00
2023-05-04T09:59:57.932Z,440.00
2023-05-04T10:00:58.965Z,440.00
2023-05-04T10:02:00.416Z,444.00
2023-05-04T10:02:59.154Z,447.00
2023-05-04T10:03:59.064Z,447.00
2023-05-04T10:04:59.077Z,444.00
2023-05-04T10:05:59.221Z,443.00
2023-05-04T10:06:59.045Z,446.00
2023-05-04T10:07:59.008Z,443.00
2023-05-04T10:08:58.022Z,443.00
2023-05-04T10:09:57.999Z,461.00
2023-05-04T10:10:58.012Z,444.00
2023-05-04T10:12:00.586Z,443.00
2023-05-04T10:12:58.989Z,444.00
2023-05-04T10:13:58.938Z,444.00
2023-05-04T10:14:58.938Z,444.00
2023-05-04T10:15:59.001Z,446.00
2023-05-04T10:16:58.936Z,446.00
2023-05-04T10:17:58.946Z,445.00
2023-05-04T10:18:57.930Z,444.00
2023-05-04T10:19:58.900Z,447.00
2023-05-04T10:20:58.898Z,449.00
2023-05-04T10:21:57.922Z,444.00
2023-05-04T10:22:57.902Z,444.00
2023-05-04T10:23:57.892Z,445.00
2023-05-04T10:24:58.887Z,448.00
2023-05-04T10:25:58.873Z,452.00
2023-05-04T10:26:58.838Z,453.00
2023-05-04T10:27:57.853Z,446.00
2023-05-04T10:28:58.853Z,444.00
2023-05-04T10:29:57.837Z,443.00
2023-05-04T10:30:58.832Z,441.00
2023-05-04T10:31:58.941Z,442.00
2023-05-04T10:32:58.899Z,442.00
2023-05-04T10:33:58.815Z,441.00
2023-05-04T10:34:57.795Z,448.00
2023-05-04T10:35:58.782Z,448.00
2023-05-04T10:36:58.784Z,448.00
2023-05-04T10:37:58.859Z,447.00
2023-05-04T10:38:58.788Z,447.00
2023-05-04T10:39:58.778Z,446.00
2023-05-04T10:40:57.776Z,445.00
2023-05-04T10:41:58.768Z,446.00
2023-05-04T10:42:59.035Z,450.00
2023-05-04T10:43:58.740Z,445.00
2023-05-04T10:44:58.746Z,441.00
2023-05-04T10:45:57.775Z,439.00
2023-05-04T10:46:59.827Z,439.00
2023-05-04T10:47:58.075Z,440.00
2023-05-04T10:48:58.729Z,440.00
2023-05-04T10:49:57.701Z,439.00
2023-05-04T10:50:58.695Z,438.00
2023-05-04T10:51:58.686Z,434.00
2023-05-04T10:52:59.504Z,434.00
2023-05-04T10:53:59.265Z,435.00
2023-05-04T10:54:58.929Z,432.00
2023-05-04T10:55:58.802Z,435.00
2023-05-04T10:56:58.869Z,433.00
2023-05-04T10:57:58.864Z,435.00
2023-05-04T10:58:57.886Z,436.00
2023-05-04T10:59:58.950Z,433.00
2023-05-04T11:00:58.022Z,436.00
2023-05-04T11:01:58.965Z,431.00
2023-05-04T11:02:58.118Z,429.00
2023-05-04T11:03:59.057Z,427.00
2023-05-04T11:04:58.042Z,427.00
2023-05-04T11:05:59.082Z,427.00
2023-05-04T11:06:59.117Z,433.00
2023-05-04T11:07:59.935Z,434.00
2023-05-04T11:08:58.167Z,432.00
2023-05-04T11:09:58.189Z,433.00
2023-05-04T11:10:59.224Z,433.00
2023-05-04T11:11:59.296Z,432.00
2023-05-04T11:12:59.352Z,433.00
2023-05-04T11:13:59.481Z,429.00
2023-05-04T11:14:59.436Z,429.00
2023-05-04T11:15:59.543Z,428.00
2023-05-04T11:16:59.471Z,428.00
2023-05-04T11:17:59.556Z,431.00
2023-05-04T11:18:59.555Z,429.00
2023-05-04T11:19:59.547Z,428.00
2023-05-04T11:20:59.596Z,428.00
2023-05-04T11:21:58.722Z,429.00
2023-05-04T11:22:58.719Z,429.00
2023-05-04T11:23:59.732Z,428.00
2023-05-04T11:24:58.746Z,428.00
2023-05-04T11:25:58.795Z,432.00
2023-05-04T11:26:58.827Z,435.00
2023-05-04T11:27:59.856Z,435.00
2023-05-04T11:28:59.878Z,435.00
2023-05-04T11:29:58.969Z,432.00
2023-05-04T11:30:59.981Z,431.00
2023-05-04T11:31:59.033Z,429.00
2023-05-04T11:32:59.135Z,431.00
2023-05-04T11:33:59.081Z,430.00
2023-05-04T11:34:59.135Z,429.00
2023-05-04T11:35:59.105Z,432.00
2023-05-04T11:37:00.214Z,433.00
2023-05-04T11:37:59.583Z,434.00
2023-05-04T11:39:00.254Z,432.00
2023-05-04T11:39:59.212Z,440.00
2023-05-04T11:41:00.240Z,439.00
2023-05-04T11:41:59.254Z,438.00
2023-05-04T11:42:59.203Z,436.00
2023-05-04T11:44:00.260Z,435.00
2023-05-04T11:45:00.287Z,435.00
2023-05-04T11:45:59.362Z,435.00
2023-05-04T11:46:59.342Z,434.00
2023-05-04T11:47:59.506Z,436.00
2023-05-04T11:48:59.367Z,436.00
2023-05-04T11:50:00.485Z,437.00
2023-05-04T11:51:00.515Z,433.00
2023-05-04T11:52:00.570Z,435.00
2023-05-04T11:52:59.655Z,431.00
2023-05-04T11:53:59.593Z,432.00
2023-05-04T11:55:00.610Z,436.00
2023-05-04T11:56:00.039Z,439.00
2023-05-04T11:57:00.864Z,439.00
2023-05-04T11:57:59.729Z,439.00
2023-05-04T11:58:59.779Z,439.00
2023-05-04T12:00:00.708Z,437.00
2023-05-04T12:01:00.775Z,437.00
2023-05-04T12:02:00.806Z,435.00
2023-05-04T12:03:00.984Z,440.00
2023-05-04T12:03:59.891Z,439.00
2023-05-04T12:04:59.896Z,437.00
2023-05-04T12:05:59.974Z,434.00
2023-05-04T12:07:01.740Z,431.00
2023-05-04T12:08:01.038Z,430.00
2023-05-04T12:09:01.013Z,430.00
2023-05-04T12:10:00.094Z,428.00
2023-05-04T12:11:00.068Z,428.00
2023-05-04T12:12:00.147Z,431.00
2023-05-04T12:13:01.232Z,434.00
2023-05-04T12:14:00.180Z,437.00
2023-05-04T12:15:01.231Z,430.00
2023-05-04T12:16:00.274Z,432.00
2023-05-04T12:17:01.282Z,436.00
2023-05-04T12:18:02.500Z,434.00
2023-05-04T12:19:00.260Z,434.00
2023-05-04T12:20:00.288Z,434.00
2023-05-04T12:21:02.803Z,434.00
2023-05-04T12:22:01.300Z,431.00
2023-05-04T12:23:00.234Z,430.00
2023-05-04T12:24:01.210Z,430.00
2023-05-04T12:25:00.285Z,425.00
2023-05-04T12:26:00.225Z,430.00
2023-05-04T12:27:00.205Z,433.00
2023-05-04T12:28:00.173Z,433.00
2023-05-04T12:29:00.149Z,427.00
2023-05-04T12:30:00.211Z,428.00
2023-05-04T12:31:00.200Z,427.00
2023-05-04T12:32:00.256Z,426.00
2023-05-04T12:33:00.298Z,423.00
2023-05-04T12:34:00.297Z,427.00
2023-05-04T12:35:00.212Z,433.00
2023-05-04T12:36:00.188Z,438.00
2023-05-04T12:37:00.151Z,431.00
2023-05-04T12:38:01.183Z,433.00
2023-05-04T12:39:00.162Z,438.00
2023-05-04T12:40:01.196Z,438.00
2023-05-04T12:41:01.172Z,436.00
2023-05-04T12:42:01.076Z,438.00
2023-05-04T12:43:01.153Z,435.00
2023-05-04T12:44:00.081Z,440.00
2023-05-04T12:45:01.092Z,435.00
2023-05-04T12:46:01.156Z,435.00
2023-05-04T12:47:01.122Z,433.00
2023-05-04T12:48:00.236Z,429.00
2023-05-04T12:49:00.025Z,431.00
2023-05-04T12:50:00.041Z,432.00
2023-05-04T12:51:00.081Z,429.00
2023-05-04T12:52:00.080Z,438.00
2023-05-04T12:53:00.014Z,425.00
2023-05-04T12:54:00.050Z,431.00
2023-05-04T12:55:01.108Z,446.00
2023-05-04T12:56:00.204Z,424.00
2023-05-04T12:57:00.113Z,425.00
2023-05-04T12:58:01.161Z,428.00
2023-05-04T12:59:00.134Z,425.00
2023-05-04T13:00:01.232Z,434.00
2023-05-04T13:01:00.297Z,439.00
2023-05-04T13:02:00.249Z,435.00
2023-05-04T13:03:00.494Z,437.00
2023-05-04T13:04:01.429Z,445.00
2023-05-04T13:05:00.378Z,441.00
2023-05-04T13:06:00.529Z,437.00
2023-05-04T13:07:01.445Z,437.00
2023-05-04T13:08:00.509Z,436.00
2023-05-04T13:09:00.498Z,430.00
2023-05-04T13:10:00.509Z,426.00
2023-05-04T13:11:01.612Z,429.00
2023-05-04T13:12:00.619Z,426.00
2023-05-04T13:13:01.773Z,426.00
2023-05-04T13:14:00.757Z,424.00
2023-05-04T13:15:00.733Z,424.00
2023-05-04T13:16:00.866Z,422.00
2023-05-04T13:17:01.898Z,424.00
2023-05-04T13:18:00.883Z,423.00
2023-05-04T13:19:00.904Z,423.00
2023-05-04T13:20:00.935Z,426.00
2023-05-04T13:21:00.957Z,431.00
2023-05-04T13:22:01.104Z,430.00
2023-05-04T13:23:01.232Z,431.00
2023-05-04T13:24:01.098Z,535.00
2023-05-04T13:25:01.141Z,403.00
2023-05-04T13:26:02.173Z,420.00
2023-05-04T13:27:02.306Z,423.00
2023-05-04T13:28:01.217Z,432.00
2023-05-04T13:29:01.257Z,430.00
2023-05-04T13:30:01.339Z,432.00
2023-05-04T13:31:01.378Z,435.00
2023-05-04T13:32:02.508Z,426.00
2023-05-04T13:33:07.702Z,425.00
2023-05-04T13:34:02.372Z,426.00
2023-05-04T13:35:01.316Z,426.00
2023-05-04T13:36:01.329Z,429.00
2023-05-04T13:37:02.402Z,425.00
2023-05-04T13:38:02.372Z,425.00
2023-05-04T13:39:01.364Z,421.00
2023-05-04T13:40:02.345Z,417.00
2023-05-04T13:41:01.274Z,428.00
2023-05-04T13:42:01.360Z,437.00
2023-05-04T13:43:01.341Z,435.00
2023-05-04T13:44:01.315Z,432.00
2023-05-04T13:45:01.299Z,430.00
2023-05-04T13:46:02.280Z,429.00
2023-05-04T13:47:01.378Z,428.00
2023-05-04T13:48:01.274Z,428.00
2023-05-04T13:49:02.229Z,423.00
2023-05-04T13:50:02.255Z,423.00
2023-05-04T13:51:01.285Z,422.00
2023-05-04T13:52:01.265Z,414.00
2023-05-04T13:53:01.217Z,420.00
2023-05-04T13:54:02.693Z,435.00
2023-05-04T13:55:01.255Z,427.00
2023-05-04T13:56:02.249Z,421.00
2023-05-04T13:57:01.249Z,422.00
2023-05-04T13:58:01.244Z,425.00
2023-05-04T13:59:02.230Z,439.00
2023-05-04T14:00:06.661Z,429.00
2023-05-04T14:01:02.183Z,427.00
2023-05-04T14:02:01.240Z,426.00
2023-05-04T14:03:01.293Z,425.00
2023-05-04T14:04:02.206Z,427.00
2023-05-04T14:05:01.202Z,426.00
2023-05-04T14:06:01.156Z,428.00
2023-05-04T14:07:02.089Z,429.00
2023-05-04T14:08:02.097Z,428.00
2023-05-04T14:09:02.216Z,434.00
2023-05-04T14:10:01.124Z,425.00
2023-05-04T14:11:01.074Z,424.00
2023-05-04T14:12:01.109Z,430.00
2023-05-04T14:13:01.109Z,431.00
2023-05-04T14:14:02.199Z,434.00
2023-05-04T14:15:01.281Z,429.00
2023-05-04T14:16:01.327Z,436.00
2023-05-04T14:17:01.245Z,421.00
2023-05-04T14:18:01.416Z,428.00
2023-05-04T14:19:01.307Z,430.00
2023-05-04T14:20:01.376Z,430.00
2023-05-04T14:21:02.354Z,428.00
2023-05-04T14:22:02.390Z,431.00
2023-05-04T14:23:01.339Z,459.00
2023-05-04T14:24:01.513Z,438.00
2023-05-04T14:25:02.509Z,441.00
2023-05-04T14:26:01.545Z,428.00
2023-05-04T14:27:02.565Z,427.00
2023-05-04T14:28:01.575Z,423.00
2023-05-04T14:29:01.559Z,436.00
2023-05-04T14:30:02.668Z,430.00
2023-05-04T14:31:01.721Z,433.00
2023-05-04T14:32:01.717Z,429.00
2023-05-04T14:33:02.828Z,425.00
2023-05-04T14:34:01.818Z,428.00
2023-05-04T14:35:01.806Z,428.00
2023-05-04T14:36:01.814Z,425.00
2023-05-04T14:37:01.920Z,431.00
2023-05-04T14:38:02.822Z,420.00
2023-05-04T14:39:02.835Z,429.00
2023-05-04T14:40:01.906Z,433.00
2023-05-04T14:41:03.027Z,433.00
2023-05-04T14:42:02.945Z,429.00
2023-05-04T14:43:02.969Z,428.00
2023-05-04T14:44:02.076Z,430.00
2023-05-04T14:45:01.959Z,429.00
2023-05-04T14:46:02.113Z,429.00
2023-05-04T14:47:02.051Z,429.00
2023-05-04T14:48:02.053Z,429.00
2023-05-04T14:49:02.101Z,430.00
2023-05-04T14:50:02.243Z,429.00
2023-05-04T14:51:02.165Z,428.00
2023-05-04T14:52:03.204Z,423.00
2023-05-04T14:53:02.236Z,424.00
2023-05-04T14:54:03.279Z,424.00
2023-05-04T14:55:02.297Z,428.00
2023-05-04T14:56:03.270Z,428.00
2023-05-04T14:57:02.291Z,426.00
2023-05-04T14:58:02.240Z,423.00
2023-05-04T14:59:03.378Z,421.00
2023-05-04T15:00:02.362Z,431.00
2023-05-04T15:01:02.388Z,430.00
2023-05-04T15:02:03.355Z,425.00
2023-05-04T15:03:02.510Z,423.00
2023-05-04T15:04:02.386Z,422.00
2023-05-04T15:05:02.407Z,427.00
2023-05-04T15:06:03.509Z,427.00
2023-05-04T15:07:03.572Z,428.00
2023-05-04T15:08:02.490Z,431.00
2023-05-04T15:09:02.584Z,431.00
2023-05-04T15:10:02.650Z,431.00
2023-05-04T15:11:02.669Z,435.00
2023-05-04T15:12:03.733Z,430.00
2023-05-04T15:13:02.700Z,428.00
2023-05-04T15:14:02.773Z,426.00
2023-05-04T15:15:02.684Z,431.00
2023-05-04T15:16:03.761Z,433.00
2023-05-04T15:17:03.789Z,430.00
2023-05-04T15:18:03.797Z,429.00
2023-05-04T15:19:02.793Z,436.00
2023-05-04T15:20:02.775Z,431.00
2023-05-04T15:21:03.828Z,431.00
2023-05-04T15:22:02.833Z,426.00
2023-05-04T15:23:03.871Z,431.00
2023-05-04T15:24:03.949Z,432.00
2023-05-04T15:25:03.899Z,431.00
2023-05-04T15:26:02.958Z,431.00
2023-05-04T15:27:03.935Z,433.00
2023-05-04T15:28:02.944Z,436.00
2023-05-04T15:29:03.059Z,433.00
2023-05-04T15:30:03.355Z,438.00
